createdAt,value
2022-09-20T00:00:21.523Z,56.52
2022-09-20T00:03:23.538Z,56.55
2022-09-20T00:06:29.276Z,56.48
2022-09-20T00:09:31.452Z,56.51
2022-09-20T00:12:33.452Z,56.53
2022-09-20T00:15:44.529Z,56.54
2022-09-20T00:18:51.259Z,56.55
2022-09-20T00:21:53.252Z,56.56
2022-09-20T00:24:55.279Z,56.52
2022-09-20T00:27:57.284Z,56.54
2022-09-20T00:30:59.338Z,56.55
2022-09-20T00:34:20.139Z,56.51
2022-09-20T00:37:22.168Z,56.53
2022-09-20T00:40:26.984Z,56.54
2022-09-20T00:43:41.768Z,56.55
2022-09-20T00:46:45.525Z,56.58
2022-09-20T00:49:49.148Z,56.61
2022-09-20T00:52:58.065Z,56.60
2022-09-20T00:56:13.973Z,56.60
2022-09-20T00:59:35.832Z,56.60
2022-09-20T01:02:50.291Z,56.63
2022-09-20T01:05:54.685Z,56.64
2022-09-20T01:08:58.924Z,56.64
2022-09-20T01:12:06.069Z,56.64
2022-09-20T01:15:09.623Z,56.68
2022-09-20T01:18:12.163Z,56.64
2022-09-20T01:21:15.325Z,56.66
2022-09-20T01:24:24.261Z,56.66
2022-09-20T01:27:42.955Z,56.65
2022-09-20T01:30:59.696Z,56.66
2022-09-20T01:34:03.775Z,56.69
2022-09-20T01:37:24.143Z,56.69
2022-09-20T01:41:04.524Z,56.73
2022-09-20T01:44:12.866Z,56.71
2022-09-20T01:47:45.022Z,56.76
2022-09-20T01:51:23.789Z,56.77
2022-09-20T01:54:40.955Z,56.77
2022-09-20T01:57:55.075Z,56.81
2022-09-20T02:01:05.017Z,56.76
2022-09-20T02:04:44.379Z,56.75
2022-09-20T02:07:55.784Z,56.82
2022-09-20T02:11:19.477Z,56.79
2022-09-20T02:14:41.793Z,56.77
2022-09-20T02:18:04.094Z,56.84
2022-09-20T02:21:25.763Z,56.80
2022-09-20T02:24:39.147Z,56.84
2022-09-20T02:28:19.839Z,56.83
2022-09-20T02:31:40.634Z,56.83
2022-09-20T02:34:57.825Z,56.84
2022-09-20T02:38:37.793Z,56.83
2022-09-20T02:41:55.778Z,56.80
2022-09-20T02:45:07.089Z,56.80
2022-09-20T02:48:09.409Z,56.84
2022-09-20T02:51:31.045Z,56.84
2022-09-20T02:54:57.467Z,56.87
2022-09-20T02:58:24.562Z,56.92
2022-09-20T03:01:55.417Z,56.92
2022-09-20T03:05:09.688Z,56.85
2022-09-20T03:08:30.027Z,56.88
2022-09-20T03:11:50.699Z,56.97
2022-09-20T03:15:26.616Z,56.93
2022-09-20T03:18:57.548Z,56.90
2022-09-20T03:22:18.291Z,56.90
2022-09-20T03:25:45.023Z,56.93
2022-09-20T03:28:53.280Z,56.91
2022-09-20T03:32:18.572Z,56.90
2022-09-20T03:35:32.689Z,56.95
2022-09-20T03:38:45.180Z,56.96
2022-09-20T03:41:52.918Z,56.95
2022-09-20T03:45:16.347Z,56.99
2022-09-20T03:48:43.331Z,56.97
2022-09-20T03:52:17.300Z,56.97
2022-09-20T03:55:43.978Z,56.95
2022-09-20T03:59:21.874Z,56.95
2022-09-20T04:02:42.791Z,56.97
2022-09-20T04:06:17.944Z,56.99
2022-09-20T04:09:35.036Z,57.03
2022-09-20T04:13:11.996Z,57.02
2022-09-20T04:16:46.393Z,57.03
2022-09-20T04:19:52.077Z,56.94
2022-09-20T04:22:58.646Z,57.02
2022-09-20T04:26:02.230Z,57.03
2022-09-20T04:29:43.004Z,57.01
2022-09-20T04:32:52.943Z,57.08
2022-09-20T04:36:29.351Z,57.03
2022-09-20T04:39:51.313Z,57.03
2022-09-20T04:43:32.931Z,57.10
2022-09-20T04:47:12.989Z,57.06
2022-09-20T04:50:23.664Z,57.08
2022-09-20T04:53:53.127Z,57.12
2022-09-20T04:57:39.804Z,57.07
2022-09-20T05:01:19.248Z,57.13
2022-09-20T05:05:01.786Z,57.13
2022-09-20T05:08:25.453Z,57.21
2022-09-20T05:11:49.582Z,57.24
2022-09-20T05:15:19.119Z,57.32
2022-09-20T05:19:07.335Z,57.30
2022-09-20T05:22:31.311Z,57.37
2022-09-20T05:25:56.413Z,57.35
2022-09-20T05:29:19.545Z,57.38
2022-09-20T05:32:45.277Z,57.54
2022-09-20T05:36:06.354Z,57.42
2022-09-20T05:39:36.240Z,57.44
2022-09-20T05:43:20.807Z,57.52
2022-09-20T05:46:57.534Z,57.61
2022-09-20T05:50:24.305Z,57.56
2022-09-20T05:53:57.608Z,57.54
2022-09-20T05:57:35.271Z,57.58
2022-09-20T06:00:48.692Z,57.59
2022-09-20T06:04:01.654Z,57.70
2022-09-20T06:07:25.304Z,57.63
2022-09-20T06:10:48.170Z,57.92
2022-09-20T06:13:59.634Z,57.72
2022-09-20T06:17:18.868Z,57.62
2022-09-20T06:20:36.982Z,57.71
2022-09-20T06:23:39.169Z,57.27
2022-09-20T06:26:42.465Z,57.15
2022-09-20T06:29:49.235Z,57.33
2022-09-20T06:33:17.160Z,58.16
2022-09-20T06:36:40.459Z,58.77
2022-09-20T06:40:41.276Z,58.74
2022-09-20T06:43:43.303Z,58.03
2022-09-20T06:46:45.362Z,58.88
2022-09-20T06:49:49.675Z,59.31
2022-09-20T06:52:53.568Z,59.44
2022-09-20T06:55:56.646Z,59.72
2022-09-20T06:58:58.770Z,59.22
2022-09-20T07:02:00.791Z,59.03
2022-09-20T07:05:02.953Z,58.32
2022-09-20T07:08:05.676Z,58.14
2022-09-20T07:11:13.833Z,58.22
2022-09-20T07:14:16.105Z,58.73
2022-09-20T07:17:18.107Z,58.89
2022-09-20T07:20:21.571Z,58.99
2022-09-20T07:23:23.954Z,59.51
2022-09-20T07:26:28.497Z,58.40
2022-09-20T07:29:31.586Z,57.64
2022-09-20T07:32:33.785Z,57.29
2022-09-20T07:35:36.318Z,57.13
2022-09-20T07:38:39.507Z,56.81
2022-09-20T07:41:41.567Z,56.33
2022-09-20T07:44:43.602Z,56.19
2022-09-20T07:47:46.599Z,56.06
2022-09-20T07:50:56.203Z,56.09
2022-09-20T07:53:58.256Z,56.23
2022-09-20T07:57:00.379Z,56.24
2022-09-20T08:00:03.914Z,56.29
2022-09-20T08:03:06.095Z,56.30
2022-09-20T08:06:11.289Z,56.26
2022-09-20T08:09:14.381Z,56.19
2022-09-20T08:15:42.193Z,55.92
2022-09-20T08:18:52.284Z,56.00
2022-09-20T08:21:54.658Z,56.16
2022-09-20T08:24:56.807Z,56.19
2022-09-20T08:27:58.965Z,56.35
2022-09-20T08:31:05.684Z,56.39
2022-09-20T08:34:10.564Z,56.48
2022-09-20T08:37:12.744Z,55.76
2022-09-20T08:40:15.812Z,55.26
2022-09-20T08:43:22.294Z,55.23
2022-09-20T08:46:29.751Z,55.20
2022-09-20T08:49:32.182Z,55.30
2022-09-20T08:52:37.753Z,55.37
2022-09-20T08:55:41.657Z,55.15
2022-09-20T08:58:44.577Z,55.33
2022-09-20T09:01:48.720Z,55.26
2022-09-20T09:04:53.812Z,55.03
2022-09-20T09:07:55.857Z,54.91
2022-09-20T09:11:04.762Z,54.76
2022-09-20T09:14:42.432Z,54.87
2022-09-20T09:17:44.428Z,54.93
2022-09-20T09:20:47.269Z,55.16
2022-09-20T09:24:04.140Z,51.14
2022-09-20T09:27:19.095Z,52.85
2022-09-20T09:30:26.277Z,49.81
2022-09-20T09:33:34.311Z,50.09
2022-09-20T09:36:44.100Z,51.65
2022-09-20T09:39:46.164Z,49.63
2022-09-20T09:42:56.906Z,49.85
2022-09-20T09:46:24.047Z,51.96
2022-09-20T09:49:30.170Z,51.95
2022-09-20T09:52:33.958Z,51.09
2022-09-20T09:55:43.843Z,51.30
2022-09-20T09:59:12.484Z,50.25
2022-09-20T10:02:26.418Z,51.04
2022-09-20T10:05:44.061Z,51.96
2022-09-20T10:08:49.049Z,51.04
2022-09-20T10:12:17.631Z,50.93
2022-09-20T10:15:39.811Z,49.95
2022-09-20T10:19:01.251Z,49.79
2022-09-20T10:22:09.024Z,50.04
2022-09-20T10:25:23.900Z,50.53
2022-09-20T10:28:54.179Z,50.00
2022-09-20T10:32:00.311Z,49.82
2022-09-20T10:35:25.891Z,49.01
2022-09-20T10:38:52.351Z,50.36
2022-09-20T10:42:38.124Z,49.45
2022-09-20T10:49:46.082Z,47.26
2022-09-20T10:53:21.113Z,44.99
2022-09-20T10:56:34.959Z,46.79
2022-09-20T10:59:56.005Z,48.02
2022-09-20T11:03:03.956Z,45.33
2022-09-20T11:06:13.630Z,44.99
2022-09-20T11:09:22.021Z,45.28
2022-09-20T11:12:33.330Z,46.38
2022-09-20T11:15:55.863Z,47.25
2022-09-20T11:19:05.256Z,46.89
2022-09-20T11:22:17.031Z,46.69
2022-09-20T11:25:44.440Z,46.96
2022-09-20T11:28:51.499Z,48.51
2022-09-20T11:32:00.746Z,51.53
2022-09-20T11:35:14.856Z,52.69
2022-09-20T11:38:23.176Z,54.65
2022-09-20T11:41:30.340Z,55.85
2022-09-20T11:44:32.869Z,57.48
2022-09-20T11:47:55.517Z,57.67
2022-09-20T11:51:31.392Z,57.88
2022-09-20T11:54:59.846Z,57.63
2022-09-20T11:58:08.272Z,58.13
2022-09-20T12:01:13.978Z,58.43
2022-09-20T12:04:35.092Z,58.31
2022-09-20T12:07:44.061Z,57.93
2022-09-20T12:11:02.395Z,57.78
2022-09-20T12:14:07.228Z,57.59
2022-09-20T12:17:44.273Z,57.32
2022-09-20T12:20:46.303Z,56.90
2022-09-20T12:23:57.284Z,56.53
2022-09-20T12:27:06.754Z,56.25
2022-09-20T12:30:21.291Z,56.19
2022-09-20T12:33:59.933Z,56.05
2022-09-20T12:37:03.358Z,55.74
2022-09-20T12:40:15.399Z,55.52
2022-09-20T12:43:21.549Z,55.45
2022-09-20T12:46:29.128Z,55.50
2022-09-20T12:50:07.866Z,55.50
2022-09-20T12:53:14.956Z,55.46
2022-09-20T12:56:21.222Z,55.40
2022-09-20T12:59:27.618Z,55.60
2022-09-20T13:02:52.851Z,56.16
2022-09-20T13:06:07.109Z,56.15
2022-09-20T13:09:10.375Z,56.07
2022-09-20T13:12:12.663Z,55.97
2022-09-20T13:15:19.474Z,55.89
2022-09-20T13:18:22.997Z,55.81
2022-09-20T13:21:25.671Z,55.78
2022-09-20T13:24:36.891Z,55.69
2022-09-20T13:27:45.082Z,55.64
2022-09-20T13:30:47.149Z,55.74
2022-09-20T13:33:49.984Z,55.68
2022-09-20T13:36:58.308Z,55.59
2022-09-20T13:40:00.821Z,55.38
2022-09-20T13:43:22.528Z,54.97
2022-09-20T13:46:32.255Z,54.63
2022-09-20T13:49:34.484Z,54.18
2022-09-20T13:52:46.157Z,53.78
2022-09-20T13:55:48.936Z,53.65
2022-09-20T13:58:52.740Z,53.34
2022-09-20T14:01:55.716Z,53.00
2022-09-20T14:05:01.056Z,53.13
2022-09-20T14:08:03.271Z,53.45
2022-09-20T14:11:22.232Z,53.74
2022-09-20T14:14:25.724Z,53.90
2022-09-20T14:17:31.742Z,53.99
2022-09-20T14:20:34.671Z,54.07
2022-09-20T14:24:14.820Z,54.13
2022-09-20T14:27:19.838Z,53.88
2022-09-20T14:30:31.600Z,53.45
2022-09-20T14:33:34.022Z,53.71
2022-09-20T14:36:37.196Z,53.80
2022-09-20T14:39:50.839Z,53.59
2022-09-20T14:43:06.708Z,53.91
2022-09-20T14:46:16.728Z,54.08
2022-09-20T14:49:30.271Z,54.28
2022-09-20T14:52:36.678Z,54.34
2022-09-20T14:55:41.465Z,54.46
2022-09-20T14:59:02.753Z,54.58
2022-09-20T15:02:13.758Z,54.58
2022-09-20T15:05:27.714Z,54.64
2022-09-20T15:08:29.828Z,54.69
2022-09-20T15:11:31.942Z,54.75
2022-09-20T15:14:37.832Z,54.78
2022-09-20T15:17:41.568Z,54.89
2022-09-20T15:20:43.580Z,54.97
2022-09-20T15:23:45.604Z,54.98
2022-09-20T15:26:47.743Z,55.13
2022-09-20T15:29:49.813Z,55.16
2022-09-20T15:32:53.250Z,55.17
2022-09-20T15:35:55.278Z,55.11
2022-09-20T15:38:57.713Z,55.24
2022-09-20T15:41:59.784Z,55.35
2022-09-20T15:45:01.822Z,55.47
2022-09-20T15:48:04.009Z,55.44
2022-09-20T15:51:08.135Z,55.47
2022-09-20T15:54:14.566Z,55.39
2022-09-20T15:57:16.973Z,55.39
2022-09-20T16:00:19.745Z,55.43
2022-09-20T16:03:27.998Z,55.47
2022-09-20T16:06:31.701Z,55.42
2022-09-20T16:09:35.739Z,55.48
2022-09-20T16:12:37.756Z,55.62
2022-09-20T16:15:39.768Z,55.71
2022-09-20T16:19:00.657Z,55.64
2022-09-20T16:22:02.699Z,55.55
2022-09-20T16:25:05.961Z,55.64
2022-09-20T16:28:07.968Z,55.52
2022-09-20T16:31:30.629Z,55.61
2022-09-20T16:34:36.587Z,55.54
2022-09-20T16:37:39.516Z,55.61
2022-09-20T16:40:41.660Z,55.65
2022-09-20T16:43:43.696Z,55.66
2022-09-20T16:46:46.088Z,55.68
2022-09-20T16:49:50.177Z,55.66
2022-09-20T16:52:52.439Z,55.84
2022-09-20T16:55:58.615Z,55.84
2022-09-20T16:59:01.951Z,55.71
2022-09-20T17:02:03.980Z,55.83
2022-09-20T17:05:06.843Z,55.90
2022-09-20T17:08:09.839Z,55.92
2022-09-20T17:11:22.633Z,55.95
2022-09-20T17:14:25.690Z,56.01
2022-09-20T17:17:27.770Z,55.97
2022-09-20T17:20:30.076Z,55.97
2022-09-20T17:23:35.844Z,56.03
2022-09-20T17:26:40.527Z,56.03
2022-09-20T17:29:42.591Z,55.84
2022-09-20T17:32:48.039Z,55.81
2022-09-20T17:35:53.240Z,55.87
2022-09-20T17:39:00.490Z,55.65
2022-09-20T17:42:06.001Z,55.87
2022-09-20T17:45:08.610Z,55.97
2022-09-20T17:48:10.644Z,56.06
2022-09-20T17:51:12.858Z,56.07
2022-09-20T17:54:15.668Z,56.10
2022-09-20T17:57:17.735Z,56.10
2022-09-20T18:00:19.821Z,56.20
2022-09-20T18:03:22.578Z,56.23
2022-09-20T18:06:31.632Z,56.26
2022-09-20T18:09:33.659Z,56.21
2022-09-20T18:12:35.796Z,56.21
2022-09-20T18:15:37.983Z,56.24
2022-09-20T18:18:41.164Z,56.29
2022-09-20T18:21:43.769Z,56.16
2022-09-20T18:24:45.823Z,56.17
2022-09-20T18:27:49.044Z,56.30
2022-09-20T18:31:04.185Z,56.37
2022-09-20T18:34:08.518Z,56.34
2022-09-20T18:37:14.522Z,56.34
2022-09-20T18:40:17.056Z,56.32
2022-09-20T18:43:19.070Z,56.32
2022-09-20T18:46:24.995Z,56.33
2022-09-20T18:49:27.246Z,56.36
2022-09-20T18:52:29.633Z,56.31
2022-09-20T18:55:31.862Z,56.29
2022-09-20T18:58:35.213Z,56.23
2022-09-20T19:01:55.688Z,56.24
2022-09-20T19:05:08.871Z,56.20
2022-09-20T19:08:34.079Z,56.15
2022-09-20T19:11:47.134Z,56.15
2022-09-20T19:15:01.308Z,56.13
2022-09-20T19:18:35.688Z,56.05
2022-09-20T19:21:55.895Z,56.13
2022-09-20T19:25:18.318Z,56.10
2022-09-20T19:28:20.757Z,56.10
2022-09-20T19:31:31.576Z,56.06
2022-09-20T19:34:33.942Z,56.10
2022-09-20T19:38:01.770Z,56.13
2022-09-20T19:41:26.519Z,56.13
2022-09-20T19:44:45.805Z,56.10
2022-09-20T19:47:59.787Z,56.10
2022-09-20T19:51:05.087Z,56.03
2022-09-20T19:54:12.092Z,56.07
2022-09-20T19:57:31.252Z,56.10
2022-09-20T20:00:33.779Z,56.00
2022-09-20T20:03:36.428Z,56.06
2022-09-20T20:07:06.004Z,56.02
2022-09-20T20:10:46.175Z,56.01
2022-09-20T20:14:05.023Z,56.00
2022-09-20T20:17:22.132Z,56.03
2022-09-20T20:20:47.049Z,56.06
2022-09-20T20:24:12.207Z,56.03
2022-09-20T20:27:14.219Z,56.00
2022-09-20T20:30:16.324Z,56.00
2022-09-20T20:33:19.196Z,56.02
2022-09-20T20:36:21.305Z,56.00
2022-09-20T20:39:23.337Z,55.98
2022-09-20T20:42:25.831Z,56.03
2022-09-20T20:45:28.263Z,55.94
2022-09-20T20:48:31.064Z,56.05
2022-09-20T20:51:33.389Z,56.03
2022-09-20T20:54:35.451Z,55.99
2022-09-20T20:57:37.986Z,56.03
2022-09-20T21:00:40.040Z,56.04
2022-09-20T21:03:45.802Z,56.08
2022-09-20T21:06:47.834Z,56.07
2022-09-20T21:09:49.900Z,56.04
2022-09-20T21:12:54.947Z,56.04
2022-09-20T21:16:08.941Z,56.13
2022-09-20T21:19:16.507Z,56.13
2022-09-20T21:22:18.547Z,56.16
2022-09-20T21:25:20.559Z,56.18
2022-09-20T21:28:22.854Z,56.14
2022-09-20T21:31:29.217Z,56.10
2022-09-20T21:34:31.337Z,56.10
2022-09-20T21:37:36.199Z,56.16
2022-09-20T21:40:39.471Z,56.10
2022-09-20T21:43:42.952Z,56.14
2022-09-20T21:46:44.958Z,56.14
2022-09-20T21:49:50.295Z,56.14
2022-09-20T21:52:52.289Z,56.19
2022-09-20T21:55:57.244Z,56.13
2022-09-20T21:59:02.431Z,56.19
2022-09-20T22:02:04.579Z,56.27
2022-09-20T22:05:06.920Z,56.19
2022-09-20T22:08:09.605Z,56.18
2022-09-20T22:11:14.981Z,56.17
2022-09-20T22:14:19.441Z,56.29
2022-09-20T22:17:21.532Z,56.19
2022-09-20T22:20:23.664Z,56.26
2022-09-20T22:23:25.714Z,56.25
2022-09-20T22:26:30.784Z,56.29
2022-09-20T22:29:33.072Z,56.32
2022-09-20T22:32:35.135Z,56.27
2022-09-20T22:35:44.767Z,56.32
2022-09-20T22:38:47.058Z,56.28
2022-09-20T22:41:51.359Z,56.36
2022-09-20T22:44:53.396Z,56.36
2022-09-20T22:47:55.376Z,56.33
2022-09-20T22:51:14.863Z,56.32
2022-09-20T22:54:16.865Z,56.36
2022-09-20T22:57:18.911Z,56.40
2022-09-20T23:00:20.966Z,56.35
2022-09-20T23:03:23.017Z,56.30
2022-09-20T23:06:28.068Z,56.35
2022-09-20T23:09:30.078Z,56.36
2022-09-20T23:12:32.083Z,56.32
2022-09-20T23:15:34.196Z,56.32
2022-09-20T23:18:36.189Z,56.34
2022-09-20T23:21:39.953Z,56.36
2022-09-20T23:24:42.072Z,56.39
2022-09-20T23:27:44.142Z,56.35
2022-09-20T23:30:46.161Z,56.36
2022-09-20T23:33:49.729Z,56.34
2022-09-20T23:36:51.761Z,56.38
2022-09-20T23:39:53.756Z,56.36
2022-09-20T23:42:55.736Z,56.34
2022-09-20T23:45:57.768Z,56.36
2022-09-20T23:49:00.090Z,56.40
2022-09-20T23:52:02.523Z,56.36
2022-09-20T23:55:04.944Z,56.39
2022-09-20T23:58:06.976Z,56.40
